100LL.CA
Aviation Fuel Pricing for Canadians
Please upgrade your browser - Tested with IE9, FireFox, Chrome, Safari

Fuel Airports Other Help
Prices Economy Info List METAR/TAF Kneeboard Help

Reference Airport: CAMPBELL RIVER, BC
N 49 57 07  W 125 16 23
Provinces to show:

CYBL CAMPBELL RIVER, BC
WEATHER
METARCYBL 221400Z 28003KT 230V330 30SM BKN060 15/12 A2984 RMK SC7 SLP105 DENSITY ALT 600FT
OTHER SITES

FlightAware

FltPlan

Google Maps

SkyVector
FUEL
FBO 100LL
member
100LL
public
JETA MOGAS
Campbell River Airport (2022-09-22)2.180
  Note: Parking $7.50/night on the grass, $32.50/night on the pavement..
Sealand Flight (2024-05-18)2.600
  Note: Parking $7.50/night on the grass, $32.50/night on the pavement..
Canada Flight Supplement - CYBL
(opens in new tab/window)


Please Send Updates!

Desktop Version ]  [ Mobile Version ]  [ Disclaimer ]